Bellingham, WA

3:29 AM PDT on June 30, 2015 (GMT -0700)
Columbia-Eldridge Marimba Palace | | Change Station
CLOSE
Current Station
Personal Weather Station
Location: Bellingham, WA
Elevation: 97 ft
Nearby Weather Stations

Elev 97 ft 48.76 °N, 122.50 °W | Updated 57 minutes ago

Clear
Clear
63.9 °F
Feels Like 63.9 °F
N
4.0
Wind Variable Wind from WSW
Gusts 4.0 mph

Today
High -- | Low -- °F
--% Chance of Precip.
Yesterday
High -- | Low -- °F
Precip. -- in
5:10 AM 9:16 PM
Waxing Gibbous, 97% visible
Pressure 30.08 in
Visibility 10.0 miles
Clouds Clear
Dew Point 57 °F
Humidity 79%
Rainfall in
Snow Depth Not available.
UV 0 out of 12
Pollen 3.00 out of 12
Air Quality Not available.
Flu Activity Sporadic
METAR KBVS 301015Z AUTO 18004KT 10SM CLR 14/13 A3008 RMK A01

More Conditions Fewer Conditions

Pressure 30.08 in
Visibility 10.0 miles
Clouds Clear
Dew Point 57 °F
Humidity 79%
Rainfall in
Snow Depth Not available.
UV 0 out of 12
Pollen 3.00 out of 12
Air Quality Not available.
Flu Activity Sporadic
METAR KBVS 301015Z AUTO 18004KT 10SM CLR 14/13 A3008 RMK A01

More Conditions Fewer Conditions

10-Day Weather Forecast

×

Almanac

Astronomy

Jun. 30, 2015 Rise Set
Actual Time
Civil Twilight
Nautical Twilight
Astronomical Twilight
Moon
Length of Visible Light
Length of Day
Tomorrow will be .
, % of the Moon is Illuminated

Today's Extremes

State Highs State Lows

Community

WunderPhotos

Upload Photos

1,833,985 photos uploaded!

WunderBlogs® & News

Nearby

Air Quality

  Air Quality AQ Index Pollutant
Not available.

Snow Depth

Station Depth Elevation

Earthquake Activity

City Distance Mag. Time & Date
Minimum magnitude displayed is 2.5.

Coastal Water Temperatures

Place Temperature

Stations

Nearby Weather Stations

Station Location Temp. Windchill Dew Point Humidity Wind Precip. Elev Updated Type